Time;durP1;ratioP1;P1;durP2;ratioP2;P2;SDS_P1;SDS_P2;PMS_P1;PMS_P2;Temp;Humidity;BMP_temperature;BMP_pressure;BME280_temperature;BME280_humidity;BME280_pressure;Samples;Min_cycle;Max_cycle;Signal;HPM_P1;HPM_P2
2024/01/06 00:01:29;;;;;;;9.18;8.38;;;;;;;;;;4988644;28;20041;-61
2024/01/06 00:03:55;;;;;;;10.32;9.25;;;;;;;;;;4985909;28;20115;-61
2024/01/06 00:06:20;;;;;;;13.07;9.23;;;;;;;;;;4995087;28;20040;-60
2024/01/06 00:08:53;;;;;;;9.68;8.77;;;;;;;;;;4988258;28;20037;-61
2024/01/06 00:11:22;;;;;;;9.80;8.68;;;;;;;;;;4990223;28;20091;-61
2024/01/06 00:13:48;;;;;;;9.88;8.35;;;;;;;;;;4992577;28;20038;-61
2024/01/06 00:16:17;;;;;;;13.63;9.27;;;;;;;;;;4988001;28;20034;-61
2024/01/06 00:18:43;;;;;;;10.52;9.63;;;;;;;;;;4994975;28;20075;-61
2024/01/06 00:21:09;;;;;;;12.73;8.98;;;;;;;;;;4990926;28;20217;-61
2024/01/06 00:23:34;;;;;;;10.48;9.45;;;;;;;;;;4989630;28;20603;-61
2024/01/06 00:26:00;;;;;;;11.05;9.30;;;;;;;;;;4995343;28;20036;-61
2024/01/06 00:28:26;;;;;;;9.32;8.43;;;;;;;;;;4991679;28;20121;-61
2024/01/06 00:30:51;;;;;;;8.75;8.05;;;;;;;;;;4991838;28;20373;-61
2024/01/06 00:33:17;;;;;;;9.82;8.77;;;;;;;;;;4987357;28;20027;-60
2024/01/06 00:35:43;;;;;;;15.40;8.75;;;;;;;;;;4988416;28;20033;-60
2024/01/06 00:38:08;;;;;;;9.13;8.32;;;;;;;;;;4986784;28;20038;-61
2024/01/06 00:40:34;;;;;;;8.52;7.72;;;;;;;;;;4988119;28;20738;-61
2024/01/06 00:43:00;;;;;;;8.63;7.82;;;;;;;;;;4993741;28;20030;-60
2024/01/06 00:45:25;;;;;;;9.27;8.50;;;;;;;;;;4993815;28;20553;-61
2024/01/06 00:47:51;;;;;;;7.78;7.10;;;;;;;;;;4997784;28;20049;-61
2024/01/06 00:50:19;;;;;;;9.43;8.43;;;;;;;;;;4988728;28;20938;-61
2024/01/06 00:52:45;;;;;;;8.00;7.30;;;;;;;;;;4989719;28;20030;-60
2024/01/06 00:55:10;;;;;;;13.13;8.60;;;;;;;;;;4999448;28;20030;-62
2024/01/06 00:57:36;;;;;;;8.32;7.47;;;;;;;;;;4987436;28;20477;-60
2024/01/06 01:00:04;;;;;;;8.30;7.60;;;;;;;;;;4987688;28;20092;-61
2024/01/06 01:02:29;;;;;;;11.20;8.70;;;;;;;;;;4984278;28;20030;-61
2024/01/06 01:04:55;;;;;;;8.00;7.28;;;;;;;;;;4995382;28;20557;-61
2024/01/06 01:07:20;;;;;;;8.23;7.60;;;;;;;;;;4983881;28;20038;-61
2024/01/06 01:09:46;;;;;;;8.05;7.38;;;;;;;;;;4998912;28;20113;-61
2024/01/06 01:12:12;;;;;;;8.63;7.88;;;;;;;;;;4991632;28;20141;-61
2024/01/06 01:14:37;;;;;;;8.32;7.53;;;;;;;;;;4985178;28;20038;-61
2024/01/06 01:17:04;;;;;;;8.27;7.43;;;;;;;;;;4996395;28;20374;-61
2024/01/06 01:19:29;;;;;;;8.68;7.55;;;;;;;;;;4984559;28;20581;-61
2024/01/06 01:21:55;;;;;;;8.55;6.97;;;;;;;;;;4990971;28;20038;-61
2024/01/06 01:24:22;;;;;;;7.70;6.45;;;;;;;;;;4983920;28;20678;-60
2024/01/06 01:26:48;;;;;;;7.13;6.25;;;;;;;;;;4994921;28;20029;-61
2024/01/06 01:29:13;;;;;;;7.32;6.60;;;;;;;;;;4994191;28;20040;-61
2024/01/06 01:31:39;;;;;;;7.13;6.35;;;;;;;;;;4985895;28;20057;-61
2024/01/06 01:34:05;;;;;;;7.10;6.60;;;;;;;;;;4993283;28;20042;-60
2024/01/06 01:36:30;;;;;;;7.15;6.55;;;;;;;;;;4995382;28;20029;-61
2024/01/06 01:38:56;;;;;;;8.07;7.28;;;;;;;;;;4991161;28;20041;-61
2024/01/06 01:41:21;;;;;;;7.43;6.93;;;;;;;;;;4990331;28;20052;-61
2024/01/06 01:43:47;;;;;;;7.50;6.90;;;;;;;;;;4990131;28;20034;-60
2024/01/06 01:46:13;;;;;;;7.07;6.55;;;;;;;;;;4993296;28;20108;-61
2024/01/06 01:48:38;;;;;;;7.10;6.60;;;;;;;;;;4991178;28;20651;-60
2024/01/06 01:51:05;;;;;;;9.35;6.20;;;;;;;;;;4992982;28;20033;-62
2024/01/06 01:53:32;;;;;;;7.40;6.80;;;;;;;;;;4990141;28;20131;-62
2024/01/06 01:55:57;;;;;;;9.57;6.75;;;;;;;;;;4995395;28;20109;-61
2024/01/06 01:58:23;;;;;;;10.52;7.05;;;;;;;;;;4991061;28;20058;-62
2024/01/06 02:00:49;;;;;;;7.13;6.43;;;;;;;;;;4989868;28;20060;-61
2024/01/06 02:03:16;;;;;;;7.47;6.25;;;;;;;;;;4990348;28;20091;-62
2024/01/06 02:05:42;;;;;;;7.32;6.63;;;;;;;;;;4992751;28;20044;-63
2024/01/06 02:08:08;;;;;;;7.03;6.43;;;;;;;;;;4989409;28;20031;-62
2024/01/06 02:10:34;;;;;;;6.93;6.32;;;;;;;;;;4981005;28;20594;-61
2024/01/06 02:13:12;;;;;;;8.23;6.68;;;;;;;;;;4997261;28;20042;-62
2024/01/06 02:15:38;;;;;;;9.18;7.38;;;;;;;;;;4988336;28;20570;-62
2024/01/06 02:18:04;;;;;;;7.88;6.85;;;;;;;;;;4987897;28;20037;-62
2024/01/06 02:20:31;;;;;;;8.43;6.60;;;;;;;;;;4986998;28;20042;-61
2024/01/06 02:23:00;;;;;;;8.65;6.88;;;;;;;;;;4985533;28;20045;-61
2024/01/06 02:25:26;;;;;;;;;;;;;;;;;;4982451;28;20041;-62
2024/01/06 02:27:51;;;;;;;8.77;6.72;;;;;;;;;;4989659;28;19917;-62
2024/01/06 02:30:17;;;;;;;7.45;6.75;;;;;;;;;;4989185;28;20061;-62
2024/01/06 02:32:42;;;;;;;7.65;6.95;;;;;;;;;;4988588;28;20272;-62
2024/01/06 02:35:08;;;;;;;7.82;6.97;;;;;;;;;;4996679;28;20083;-62
2024/01/06 02:37:33;;;;;;;7.75;6.95;;;;;;;;;;4990624;28;20603;-62
2024/01/06 02:39:59;;;;;;;7.00;6.32;;;;;;;;;;4989795;28;20061;-62
2024/01/06 02:42:25;;;;;;;10.13;6.97;;;;;;;;;;4996222;28;20116;-62
2024/01/06 02:44:51;;;;;;;7.45;6.85;;;;;;;;;;4992496;28;20121;-62
2024/01/06 02:47:17;;;;;;;7.65;6.75;;;;;;;;;;4989897;28;20103;-61
2024/01/06 02:49:42;;;;;;;7.32;6.38;;;;;;;;;;4987673;28;20107;-61
2024/01/06 02:52:08;;;;;;;7.18;6.57;;;;;;;;;;4991562;28;20042;-60
2024/01/06 02:54:33;;;;;;;9.13;6.70;;;;;;;;;;4991934;28;20042;-62
2024/01/06 02:56:59;;;;;;;7.38;6.88;;;;;;;;;;4988750;28;20030;-62
2024/01/06 02:59:24;;;;;;;6.75;6.20;;;;;;;;;;4989130;28;20049;-61
2024/01/06 03:01:50;;;;;;;7.57;6.82;;;;;;;;;;4990320;28;20107;-61
2024/01/06 03:04:15;;;;;;;7.95;7.32;;;;;;;;;;4992218;28;20044;-62
2024/01/06 03:06:41;;;;;;;7.32;6.68;;;;;;;;;;4988837;28;20195;-63
2024/01/06 03:09:07;;;;;;;8.27;6.68;;;;;;;;;;4989611;28;20065;-62
2024/01/06 03:11:33;;;;;;;8.10;7.40;;;;;;;;;;4994789;28;20069;-62
2024/01/06 03:13:58;;;;;;;10.00;6.90;;;;;;;;;;4989577;28;20041;-62
2024/01/06 03:16:24;;;;;;;8.05;7.45;;;;;;;;;;4979154;28;20503;-62
2024/01/06 03:18:49;;;;;;;7.47;6.82;;;;;;;;;;4992239;28;20038;-62
2024/01/06 03:21:21;;;;;;;8.77;7.22;;;;;;;;;;4990026;28;20064;-62
2024/01/06 03:23:50;;;;;;;8.80;7.40;;;;;;;;;;4991140;28;20061;-63
2024/01/06 03:26:17;;;;;;;9.18;7.22;;;;;;;;;;4988815;28;20029;-62
2024/01/06 03:28:43;;;;;;;8.20;7.60;;;;;;;;;;4989205;28;20034;-60
2024/01/06 03:31:08;;;;;;;9.80;7.50;;;;;;;;;;4996731;28;20041;-62
2024/01/06 03:33:34;;;;;;;9.65;7.63;;;;;;;;;;4988269;28;20041;-62
2024/01/06 03:36:04;;;;;;;8.30;7.45;;;;;;;;;;4989077;28;20033;-62
2024/01/06 03:38:30;;;;;;;8.27;7.22;;;;;;;;;;4986508;28;20176;-61
2024/01/06 03:40:55;;;;;;;13.63;7.28;;;;;;;;;;4996067;28;20124;-62
2024/01/06 03:43:21;;;;;;;7.60;7.03;;;;;;;;;;4990092;28;20116;-62
2024/01/06 03:45:46;;;;;;;7.70;7.10;;;;;;;;;;4993375;28;20041;-62
2024/01/06 03:48:12;;;;;;;7.50;6.53;;;;;;;;;;4992130;28;20156;-62
2024/01/06 03:50:38;;;;;;;8.73;6.68;;;;;;;;;;4999203;28;20037;-62
2024/01/06 03:53:03;;;;;;;13.10;7.43;;;;;;;;;;4994054;28;20050;-62
2024/01/06 03:55:29;;;;;;;7.88;6.47;;;;;;;;;;4995140;28;20048;-62
2024/01/06 03:57:54;;;;;;;6.75;6.25;;;;;;;;;;4990437;28;20050;-62
2024/01/06 04:00:20;;;;;;;8.85;6.95;;;;;;;;;;5000927;28;20065;-62
2024/01/06 04:02:45;;;;;;;7.32;6.68;;;;;;;;;;4990384;28;20140;-62
2024/01/06 04:05:11;;;;;;;6.88;6.38;;;;;;;;;;4987003;28;20055;-61
2024/01/06 04:07:36;;;;;;;7.55;6.95;;;;;;;;;;4993984;28;20056;-61
2024/01/06 04:10:02;;;;;;;9.43;6.78;;;;;;;;;;4999991;28;20482;-60
2024/01/06 04:12:27;;;;;;;7.30;6.70;;;;;;;;;;4993553;28;20030;-62
2024/01/06 04:14:53;;;;;;;7.28;6.78;;;;;;;;;;4991707;28;20597;-62
2024/01/06 04:17:19;;;;;;;7.68;6.97;;;;;;;;;;4999373;28;20128;-62
2024/01/06 04:19:45;;;;;;;11.00;7.20;;;;;;;;;;4992764;28;20076;-62
2024/01/06 04:22:10;;;;;;;8.52;7.40;;;;;;;;;;4994767;28;20046;-61
2024/01/06 04:24:37;;;;;;;8.07;6.80;;;;;;;;;;4992972;28;20038;-62
2024/01/06 04:27:05;;;;;;;7.43;6.82;;;;;;;;;;5000520;28;20029;-62
2024/01/06 04:29:31;;;;;;;7.50;6.80;;;;;;;;;;4994670;28;20132;-62
2024/01/06 04:31:57;;;;;;;7.45;6.85;;;;;;;;;;4988928;28;20702;-63
2024/01/06 04:34:23;;;;;;;7.53;6.75;;;;;;;;;;4991481;28;20125;-62
2024/01/06 04:36:50;;;;;;;7.85;7.00;;;;;;;;;;4992841;28;20687;-63
2024/01/06 04:39:15;;;;;;;7.55;6.75;;;;;;;;;;4993494;28;20044;-62
2024/01/06 04:41:41;;;;;;;7.00;6.57;;;;;;;;;;4992923;28;20034;-62
2024/01/06 04:44:06;;;;;;;7.40;6.72;;;;;;;;;;4989847;28;20030;-61
2024/01/06 04:46:32;;;;;;;7.05;6.55;;;;;;;;;;4997467;28;20037;-62
2024/01/06 04:48:57;;;;;;;7.00;6.50;;;;;;;;;;4986736;28;20136;-60
2024/01/06 04:51:23;;;;;;;7.70;7.10;;;;;;;;;;4994761;28;20525;-61
2024/01/06 04:53:48;;;;;;;8.27;6.72;;;;;;;;;;4992967;28;20033;-61
2024/01/06 04:56:14;;;;;;;7.68;6.97;;;;;;;;;;4989730;28;20037;-61
2024/01/06 04:58:40;;;;;;;7.90;7.20;;;;;;;;;;4992237;28;20061;-62
2024/01/06 05:01:06;;;;;;;8.48;7.20;;;;;;;;;;4998146;28;20038;-62
2024/01/06 05:03:31;;;;;;;8.23;6.55;;;;;;;;;;4992722;28;20044;-62
2024/01/06 05:05:57;;;;;;;9.07;6.63;;;;;;;;;;4994272;28;20037;-59
2024/01/06 05:08:22;;;;;;;8.13;7.43;;;;;;;;;;4987107;28;20049;-61
2024/01/06 05:10:48;;;;;;;9.93;7.15;;;;;;;;;;4990456;28;20094;-63
2024/01/06 05:13:14;;;;;;;8.95;7.13;;;;;;;;;;4990886;28;20132;-62
2024/01/06 05:15:40;;;;;;;7.55;7.03;;;;;;;;;;4985318;28;20084;-62
2024/01/06 05:18:05;;;;;;;7.75;6.95;;;;;;;;;;4988759;28;20038;-62
2024/01/06 05:20:31;;;;;;;8.13;7.40;;;;;;;;;;4992729;28;20030;-62
2024/01/06 05:22:56;;;;;;;9.27;7.28;;;;;;;;;;4991975;28;20104;-62
2024/01/06 05:25:22;;;;;;;8.43;6.88;;;;;;;;;;4992085;28;20167;-59
2024/01/06 05:27:47;;;;;;;8.27;7.35;;;;;;;;;;4992773;28;21328;-62
2024/01/06 05:30:13;;;;;;;7.75;7.10;;;;;;;;;;4995784;28;20044;-60
2024/01/06 05:32:39;;;;;;;8.77;6.93;;;;;;;;;;4985905;28;20044;-62
2024/01/06 05:35:04;;;;;;;7.47;6.78;;;;;;;;;;4990658;28;20038;-61
2024/01/06 05:37:32;;;;;;;7.72;6.95;;;;;;;;;;4993975;28;20476;-62
2024/01/06 05:40:01;;;;;;;7.50;6.80;;;;;;;;;;4992842;28;20064;-62
2024/01/06 05:42:27;;;;;;;7.43;6.70;;;;;;;;;;4987630;28;20117;-62
2024/01/06 05:44:52;;;;;;;7.40;6.68;;;;;;;;;;4996092;28;20046;-63
2024/01/06 05:47:18;;;;;;;8.68;6.65;;;;;;;;;;4994473;28;20113;-62
2024/01/06 05:49:46;;;;;;;7.88;7.22;;;;;;;;;;4991989;28;20048;-60
2024/01/06 05:52:12;;;;;;;7.07;6.47;;;;;;;;;;4985496;28;20046;-62
2024/01/06 05:54:42;;;;;;;7.72;7.07;;;;;;;;;;4983012;28;20057;-62
2024/01/06 05:57:08;;;;;;;7.40;6.72;;;;;;;;;;4990365;28;20038;-61
2024/01/06 05:59:33;;;;;;;7.25;6.65;;;;;;;;;;4989126;28;20045;-62
2024/01/06 06:02:00;;;;;;;7.55;6.95;;;;;;;;;;4994083;28;20038;-63
2024/01/06 06:04:25;;;;;;;7.53;6.82;;;;;;;;;;4992611;28;20588;-63
2024/01/06 06:06:51;;;;;;;10.02;6.68;;;;;;;;;;4988416;28;20029;-61
2024/01/06 06:09:16;;;;;;;7.25;6.55;;;;;;;;;;4983845;28;20053;-62
2024/01/06 06:11:42;;;;;;;7.47;6.78;;;;;;;;;;4995071;28;20037;-61
2024/01/06 06:14:09;;;;;;;7.53;6.88;;;;;;;;;;4991284;28;20038;-60
2024/01/06 06:16:34;;;;;;;8.70;6.95;;;;;;;;;;4990145;28;20034;-62
2024/01/06 06:19:00;;;;;;;7.57;6.88;;;;;;;;;;4984307;28;20038;-61
2024/01/06 06:21:26;;;;;;;7.35;6.68;;;;;;;;;;4997407;28;20042;-63
2024/01/06 06:23:51;;;;;;;8.48;7.55;;;;;;;;;;4990635;28;20092;-62
2024/01/06 06:26:17;;;;;;;7.53;6.78;;;;;;;;;;4990131;28;20037;-60
2024/01/06 06:28:43;;;;;;;7.32;6.68;;;;;;;;;;4994837;28;20133;-62
2024/01/06 06:31:08;;;;;;;8.18;7.10;;;;;;;;;;4990121;28;20034;-61
2024/01/06 06:33:34;;;;;;;8.25;7.43;;;;;;;;;;4988163;28;20037;-62
2024/01/06 06:36:01;;;;;;;7.53;6.93;;;;;;;;;;4991215;28;20044;-62
2024/01/06 06:38:27;;;;;;;7.15;6.50;;;;;;;;;;4992309;28;20723;-63
2024/01/06 06:40:53;;;;;;;7.47;6.78;;;;;;;;;;4990232;28;20099;-62
2024/01/06 06:43:18;;;;;;;8.70;6.97;;;;;;;;;;4990381;28;20471;-62
2024/01/06 06:45:44;;;;;;;7.80;7.10;;;;;;;;;;4992155;28;20048;-62
2024/01/06 06:48:10;;;;;;;7.82;7.20;;;;;;;;;;4997835;28;20065;-61
2024/01/06 06:50:36;;;;;;;8.32;6.70;;;;;;;;;;4991273;28;20494;-61
2024/01/06 06:53:02;;;;;;;6.90;6.28;;;;;;;;;;4987033;28;20038;-62
2024/01/06 06:55:27;;;;;;;6.88;6.40;;;;;;;;;;4996772;28;20030;-62
2024/01/06 06:57:53;;;;;;;7.45;6.68;;;;;;;;;;4989553;28;20030;-61
2024/01/06 07:00:19;;;;;;;7.85;6.82;;;;;;;;;;4991056;28;20084;-60
2024/01/06 07:02:45;;;;;;;8.40;6.85;;;;;;;;;;4987821;28;20137;-62
2024/01/06 07:05:11;;;;;;;9.02;6.50;;;;;;;;;;4991003;28;20030;-62
2024/01/06 07:07:37;;;;;;;7.05;6.47;;;;;;;;;;4988504;28;20042;-62
2024/01/06 07:10:06;;;;;;;7.38;6.70;;;;;;;;;;4990444;28;20554;-62
2024/01/06 07:12:32;;;;;;;7.18;6.60;;;;;;;;;;4987862;28;20069;-62
2024/01/06 07:15:01;;;;;;;10.45;6.97;;;;;;;;;;4992769;28;20378;-62
2024/01/06 07:17:26;;;;;;;9.00;8.02;;;;;;;;;;4991157;28;20054;-62
2024/01/06 07:19:52;;;;;;;8.85;6.72;;;;;;;;;;4993643;28;20044;-62
2024/01/06 07:22:18;;;;;;;8.88;7.97;;;;;;;;;;4990836;28;20682;-61
2024/01/06 07:24:44;;;;;;;9.07;7.10;;;;;;;;;;4998072;28;20046;-60
2024/01/06 07:27:09;;;;;;;9.25;8.25;;;;;;;;;;4990602;28;20037;-62
2024/01/06 07:29:35;;;;;;;8.32;7.45;;;;;;;;;;4993829;28;20061;-62
2024/01/06 07:32:02;;;;;;;8.15;7.35;;;;;;;;;;4995895;28;21008;-62
2024/01/06 07:34:27;;;;;;;7.13;6.50;;;;;;;;;;4997017;28;20117;-61
2024/01/06 07:36:53;;;;;;;7.68;7.07;;;;;;;;;;4991670;28;20087;-62
2024/01/06 07:39:19;;;;;;;7.30;6.70;;;;;;;;;;4993405;28;20121;-62
2024/01/06 07:41:46;;;;;;;7.75;7.13;;;;;;;;;;4992611;28;20042;-61
2024/01/06 07:44:12;;;;;;;10.93;7.68;;;;;;;;;;4992906;28;20042;-62
2024/01/06 07:46:40;;;;;;;8.00;7.40;;;;;;;;;;4992520;28;21346;-63
2024/01/06 07:49:06;;;;;;;8.10;7.30;;;;;;;;;;4992885;28;20084;-63
2024/01/06 07:51:32;;;;;;;9.25;7.03;;;;;;;;;;4990706;28;20065;-62
2024/01/06 07:53:58;;;;;;;8.75;7.03;;;;;;;;;;4999871;28;20100;-62
2024/01/06 07:56:24;;;;;;;8.43;7.57;;;;;;;;;;4995988;28;20046;-63
2024/01/06 07:58:49;;;;;;;9.38;8.30;;;;;;;;;;4987531;28;20029;-63
2024/01/06 08:01:15;;;;;;;11.02;8.43;;;;;;;;;;4988406;28;20124;-62
2024/01/06 08:03:40;;;;;;;12.90;9.65;;;;;;;;;;4998837;28;20060;-62
2024/01/06 08:06:06;;;;;;;12.75;11.45;;;;;;;;;;4988488;28;20450;-62
2024/01/06 08:08:32;;;;;;;11.93;10.45;;;;;;;;;;4991721;28;20026;-61
2024/01/06 08:10:57;;;;;;;11.70;10.38;;;;;;;;;;4991181;28;21663;-62
2024/01/06 08:13:23;;;;;;;10.02;9.13;;;;;;;;;;4996408;28;20077;-62
2024/01/06 08:15:48;;;;;;;9.50;8.60;;;;;;;;;;4994187;28;20088;-62
2024/01/06 08:18:14;;;;;;;9.60;8.80;;;;;;;;;;4995534;28;20112;-62
2024/01/06 08:20:39;;;;;;;9.65;8.30;;;;;;;;;;4993719;28;20109;-62
2024/01/06 08:23:05;;;;;;;8.73;7.20;;;;;;;;;;4990925;28;20772;-62
2024/01/06 08:25:30;;;;;;;7.68;7.15;;;;;;;;;;4994856;28;20065;-61
2024/01/06 08:27:56;;;;;;;9.05;8.25;;;;;;;;;;4995013;28;20033;-62
2024/01/06 08:30:23;;;;;;;14.05;10.00;;;;;;;;;;4993788;28;20053;-58
2024/01/06 08:32:49;;;;;;;10.18;7.60;;;;;;;;;;4990842;28;20061;-62
2024/01/06 08:35:16;;;;;;;7.85;7.15;;;;;;;;;;4996117;28;20676;-62
2024/01/06 08:37:43;;;;;;;10.00;7.28;;;;;;;;;;4985104;28;20076;-61
2024/01/06 08:40:09;;;;;;;10.93;8.40;;;;;;;;;;4992236;28;20057;-62
2024/01/06 08:42:34;;;;;;;8.30;7.55;;;;;;;;;;4990980;28;20072;-62
2024/01/06 08:45:00;;;;;;;7.07;6.68;;;;;;;;;;5012347;28;20030;-61
2024/01/06 08:47:25;;;;;;;7.85;7.18;;;;;;;;;;4992141;28;20104;-63
2024/01/06 08:49:51;;;;;;;8.25;7.50;;;;;;;;;;4984555;28;20038;-62
2024/01/06 08:52:16;;;;;;;8.20;7.50;;;;;;;;;;4987505;28;20049;-62
2024/01/06 08:54:42;;;;;;;7.63;6.88;;;;;;;;;;4990246;28;20038;-60
2024/01/06 08:57:08;;;;;;;7.97;7.20;;;;;;;;;;4991999;28;20041;-62
2024/01/06 08:59:33;;;;;;;7.75;7.05;;;;;;;;;;4996426;28;20819;-62
2024/01/06 09:01:59;;;;;;;7.75;7.00;;;;;;;;;;4989695;28;20030;-62
2024/01/06 09:04:24;;;;;;;8.82;8.23;;;;;;;;;;4990625;28;20810;-61
2024/01/06 09:06:50;;;;;;;7.90;7.28;;;;;;;;;;4996430;28;20037;-61
2024/01/06 09:09:16;;;;;;;7.90;7.10;;;;;;;;;;4994250;28;20050;-62
2024/01/06 09:11:43;;;;;;;7.57;6.95;;;;;;;;;;4992152;28;20037;-62
2024/01/06 09:14:10;;;;;;;7.72;7.22;;;;;;;;;;4993290;28;20195;-67
2024/01/06 09:16:36;;;;;;;7.40;6.80;;;;;;;;;;4990268;28;20118;-61
2024/01/06 09:19:02;;;;;;;7.22;6.50;;;;;;;;;;4992386;28;20048;-63
2024/01/06 09:21:28;;;;;;;9.85;7.63;;;;;;;;;;4990314;28;20814;-61
2024/01/06 09:23:53;;;;;;;9.27;7.13;;;;;;;;;;4989714;28;20667;-62
2024/01/06 09:26:19;;;;;;;8.60;7.80;;;;;;;;;;4998310;28;20026;-63
2024/01/06 09:28:44;;;;;;;9.25;7.93;;;;;;;;;;4995616;28;20155;-62
2024/01/06 09:31:10;;;;;;;8.82;8.00;;;;;;;;;;4991030;28;20081;-63
2024/01/06 09:33:35;;;;;;;7.72;7.07;;;;;;;;;;4993118;28;20145;-62
2024/01/06 09:36:02;;;;;;;8.38;7.43;;;;;;;;;;4995021;28;20152;-63
2024/01/06 09:38:28;;;;;;;7.93;7.28;;;;;;;;;;4992210;28;20128;-62
2024/01/06 09:40:55;;;;;;;12.27;7.68;;;;;;;;;;4993119;28;20100;-63
2024/01/06 09:43:21;;;;;;;8.90;8.00;;;;;;;;;;4995861;28;20131;-63
2024/01/06 09:45:57;;;;;;;8.32;7.65;;;;;;;;;;4993773;28;20085;-63
2024/01/06 09:48:29;;;;;;;8.80;7.97;;;;;;;;;;4990130;28;20475;-63
2024/01/06 09:50:56;;;;;;;12.10;8.15;;;;;;;;;;4989134;28;20053;-63
2024/01/06 09:53:28;;;;;;;8.93;7.57;;;;;;;;;;4998034;28;20038;-61
2024/01/06 09:55:55;;;;;;;8.27;7.47;;;;;;;;;;4992490;28;20149;-62
2024/01/06 09:58:21;;;;;;;9.57;8.77;;;;;;;;;;4992163;28;20038;-62
2024/01/06 10:00:49;;;;;;;9.35;8.50;;;;;;;;;;4992903;28;20025;-62
2024/01/06 10:03:14;;;;;;;9.18;8.43;;;;;;;;;;4993640;28;20784;-63
2024/01/06 10:05:40;;;;;;;8.88;8.07;;;;;;;;;;4992113;28;20038;-63
2024/01/06 10:08:06;;;;;;;8.63;7.78;;;;;;;;;;4992898;28;20180;-63
2024/01/06 10:10:34;;;;;;;8.90;7.93;;;;;;;;;;4992898;28;20762;-62
2024/01/06 10:13:00;;;;;;;8.63;8.02;;;;;;;;;;4993136;28;21658;-62
2024/01/06 10:15:25;;;;;;;8.82;8.02;;;;;;;;;;4992673;28;20037;-63
2024/01/06 10:17:54;;;;;;;9.07;7.38;;;;;;;;;;4993864;28;20484;-63
2024/01/06 10:20:21;;;;;;;8.00;7.20;;;;;;;;;;4992639;28;20419;-62
2024/01/06 10:22:46;;;;;;;8.48;7.78;;;;;;;;;;4988523;28;20645;-63
2024/01/06 10:25:12;;;;;;;8.10;7.50;;;;;;;;;;4990888;28;20061;-61
2024/01/06 10:27:39;;;;;;;7.53;6.97;;;;;;;;;;4991787;28;20084;-62
2024/01/06 10:30:06;;;;;;;8.10;7.60;;;;;;;;;;4993295;28;20064;-63
2024/01/06 10:32:36;;;;;;;7.38;6.85;;;;;;;;;;4990508;28;20038;-61
2024/01/06 10:35:03;;;;;;;7.07;6.60;;;;;;;;;;4992209;28;20195;-62
2024/01/06 10:37:30;;;;;;;7.38;6.95;;;;;;;;;;4990946;28;20050;-63
2024/01/06 10:40:13;;;;;;;7.72;6.95;;;;;;;;;;4992173;28;20502;-63
2024/01/06 10:42:40;;;;;;;6.88;6.38;;;;;;;;;;4986180;28;20871;-63
2024/01/06 10:45:08;;;;;;;7.40;6.97;;;;;;;;;;4994117;28;20407;-63
2024/01/06 10:47:34;;;;;;;7.90;7.25;;;;;;;;;;4991693;28;20052;-63
2024/01/06 10:49:59;;;;;;;7.30;6.90;;;;;;;;;;4993647;28;20196;-60
2024/01/06 10:52:27;;;;;;;7.90;7.30;;;;;;;;;;4990379;28;20044;-62
2024/01/06 10:54:54;;;;;;;35.08;17.25;;;;;;;;;;4989890;28;20522;-60
2024/01/06 10:57:20;;;;;;;8.48;7.75;;;;;;;;;;4994185;28;20056;-63
2024/01/06 10:59:50;;;;;;;8.02;7.53;;;;;;;;;;4984349;28;20371;-63
2024/01/06 11:02:16;;;;;;;7.25;6.82;;;;;;;;;;4993685;28;20087;-63
2024/01/06 11:04:51;;;;;;;7.82;7.32;;;;;;;;;;4985733;28;20038;-62
2024/01/06 11:07:20;;;;;;;8.07;7.47;;;;;;;;;;4991358;28;20026;-62
2024/01/06 11:10:05;;;;;;;9.70;8.90;;;;;;;;;;4989035;28;20872;-62
2024/01/06 11:12:31;;;;;;;7.65;7.22;;;;;;;;;;4994803;28;20127;-62
2024/01/06 11:14:57;;;;;;;8.70;7.90;;;;;;;;;;4989547;28;20041;-60
2024/01/06 11:17:50;;;;;;;7.85;7.28;;;;;;;;;;4988883;28;20602;-62
2024/01/06 11:20:15;;;;;;;7.57;7.07;;;;;;;;;;4990872;28;20061;-61
2024/01/06 11:22:41;;;;;;;7.63;7.00;;;;;;;;;;4987692;28;20038;-63
2024/01/06 11:25:12;;;;;;;7.50;7.00;;;;;;;;;;4991138;28;20053;-63
2024/01/06 11:27:38;;;;;;;9.18;8.45;;;;;;;;;;4987850;28;20042;-63
2024/01/06 11:30:05;;;;;;;8.30;7.70;;;;;;;;;;4988146;28;20030;-63
2024/01/06 11:32:40;;;;;;;9.02;8.15;;;;;;;;;;4989857;28;20054;-61
2024/01/06 11:35:14;;;;;;;7.53;7.03;;;;;;;;;;4994463;28;20034;-62
2024/01/06 11:37:39;;;;;;;7.88;7.38;;;;;;;;;;4984750;28;20460;-62
2024/01/06 11:40:09;;;;;;;8.52;7.90;;;;;;;;;;4988324;28;20037;-63
2024/01/06 11:42:35;;;;;;;8.50;7.90;;;;;;;;;;4992831;28;20046;-63
2024/01/06 11:45:07;;;;;;;8.52;7.88;;;;;;;;;;4992537;28;20045;-62
2024/01/06 11:47:35;;;;;;;8.23;7.55;;;;;;;;;;4992757;28;20037;-58
2024/01/06 11:50:05;;;;;;;8.00;7.40;;;;;;;;;;4993258;28;20041;-62
2024/01/06 11:52:32;;;;;;;7.55;7.15;;;;;;;;;;4995582;28;20038;-63
2024/01/06 11:54:58;;;;;;;8.63;8.02;;;;;;;;;;4991876;28;20033;-62
2024/01/06 11:57:27;;;;;;;8.48;7.97;;;;;;;;;;4996762;28;20042;-63
2024/01/06 11:59:53;;;;;;;8.07;7.63;;;;;;;;;;4994537;28;20042;-62
2024/01/06 12:02:21;;;;;;;8.20;7.70;;;;;;;;;;4995832;28;20095;-62
2024/01/06 12:04:52;;;;;;;7.57;7.07;;;;;;;;;;4994325;28;20065;-61
2024/01/06 12:07:19;;;;;;;6.95;6.55;;;;;;;;;;4999357;28;20045;-62
2024/01/06 12:09:47;;;;;;;6.88;6.43;;;;;;;;;;4993876;28;20040;-63
2024/01/06 12:12:16;;;;;;;7.80;7.20;;;;;;;;;;4996966;28;20088;-63
2024/01/06 12:14:42;;;;;;;7.60;7.10;;;;;;;;;;4994067;28;20065;-62
2024/01/06 12:17:10;;;;;;;7.05;6.55;;;;;;;;;;4998038;28;20029;-63
2024/01/06 12:19:36;;;;;;;7.72;7.20;;;;;;;;;;4993390;28;20707;-62
2024/01/06 12:22:02;;;;;;;8.15;7.45;;;;;;;;;;4995175;28;20057;-63
2024/01/06 12:24:28;;;;;;;7.82;7.32;;;;;;;;;;4997969;28;20427;-60
2024/01/06 12:26:57;;;;;;;7.63;7.13;;;;;;;;;;4993212;28;20789;-62
2024/01/06 12:29:28;;;;;;;8.65;7.97;;;;;;;;;;4994232;28;20061;-61
2024/01/06 12:31:53;;;;;;;9.07;8.25;;;;;;;;;;4991569;28;20034;-61
2024/01/06 12:34:20;;;;;;;8.73;8.13;;;;;;;;;;4993645;28;20034;-65
2024/01/06 12:36:47;;;;;;;8.90;8.20;;;;;;;;;;4989291;28;20029;-63
2024/01/06 12:39:13;;;;;;;8.35;7.63;;;;;;;;;;4995891;28;20849;-62
2024/01/06 12:41:40;;;;;;;9.20;8.40;;;;;;;;;;4997043;28;20046;-62
2024/01/06 12:44:07;;;;;;;8.98;8.10;;;;;;;;;;4994529;28;20068;-62
2024/01/06 12:46:33;;;;;;;11.18;10.00;;;;;;;;;;4990391;28;20076;-62
2024/01/06 12:48:59;;;;;;;10.43;9.52;;;;;;;;;;4995336;28;20496;-61
2024/01/06 12:51:25;;;;;;;11.10;10.30;;;;;;;;;;4997377;28;20092;-63
2024/01/06 12:53:50;;;;;;;12.18;10.88;;;;;;;;;;4989233;28;20035;-62
2024/01/06 12:56:16;;;;;;;9.60;8.90;;;;;;;;;;4993024;28;20569;-62
2024/01/06 12:58:42;;;;;;;9.48;8.73;;;;;;;;;;4989669;28;20091;-62
2024/01/06 13:01:07;;;;;;;8.68;8.07;;;;;;;;;;4985414;28;20053;-63
2024/01/06 13:03:33;;;;;;;9.85;9.05;;;;;;;;;;4995405;28;20141;-62
2024/01/06 13:06:00;;;;;;;8.55;7.95;;;;;;;;;;4987112;28;20144;-64
2024/01/06 13:08:27;;;;;;;8.25;7.65;;;;;;;;;;4996849;28;20042;-61
2024/01/06 13:10:53;;;;;;;9.07;8.38;;;;;;;;;;4988322;28;20038;-62
2024/01/06 13:13:19;;;;;;;9.07;8.30;;;;;;;;;;4998145;28;20037;-63
2024/01/06 13:15:46;;;;;;;8.35;7.65;;;;;;;;;;4994467;28;20699;-61
2024/01/06 13:18:12;;;;;;;8.43;7.72;;;;;;;;;;4994342;28;20065;-62
2024/01/06 13:20:40;;;;;;;9.45;8.65;;;;;;;;;;4996268;28;20092;-62
2024/01/06 13:23:06;;;;;;;9.18;8.52;;;;;;;;;;4996266;28;20096;-64
2024/01/06 13:25:33;;;;;;;8.50;7.90;;;;;;;;;;4994597;28;20140;-60
2024/01/06 13:27:59;;;;;;;8.15;7.55;;;;;;;;;;4990564;28;20041;-61
2024/01/06 13:30:25;;;;;;;8.45;7.85;;;;;;;;;;4993629;28;20048;-63
2024/01/06 13:32:54;;;;;;;8.65;8.02;;;;;;;;;;4992320;28;20057;-62
2024/01/06 13:35:24;;;;;;;8.43;7.82;;;;;;;;;;4991962;28;20096;-62
2024/01/06 13:37:54;;;;;;;8.65;8.02;;;;;;;;;;4991137;28;20099;-61
2024/01/06 13:40:19;;;;;;;;;;;;;;;;;;4997020;28;20057;-62
2024/01/06 13:42:50;;;;;;;9.15;8.45;;;;;;;;;;4995397;28;19917;-63
2024/01/06 13:45:16;;;;;;;9.40;8.48;;;;;;;;;;4993165;28;20061;-61
2024/01/06 13:47:44;;;;;;;8.65;8.00;;;;;;;;;;4991448;28;20070;-61
2024/01/06 13:50:12;;;;;;;8.77;8.18;;;;;;;;;;4994129;28;20038;-62
2024/01/06 13:52:38;;;;;;;9.27;8.18;;;;;;;;;;4995031;28;20048;-63
2024/01/06 13:55:05;;;;;;;9.43;8.52;;;;;;;;;;4992667;28;20524;-63
2024/01/06 13:57:30;;;;;;;9.90;9.10;;;;;;;;;;4992263;28;20034;-63
2024/01/06 13:59:57;;;;;;;10.23;9.43;;;;;;;;;;4987116;28;20060;-62
2024/01/06 14:02:23;;;;;;;9.95;9.07;;;;;;;;;;4993893;28;20037;-60
2024/01/06 14:04:49;;;;;;;10.13;9.25;;;;;;;;;;4995173;28;20060;-62
2024/01/06 14:07:18;;;;;;;10.65;9.25;;;;;;;;;;4988140;28;20057;-60
2024/01/06 14:09:44;;;;;;;10.55;9.52;;;;;;;;;;4996839;28;20626;-61
2024/01/06 14:12:10;;;;;;;9.77;8.98;;;;;;;;;;4993521;28;20057;-59
2024/01/06 14:14:35;;;;;;;9.88;9.07;;;;;;;;;;4997219;28;20140;-60
2024/01/06 14:17:02;;;;;;;10.27;9.10;;;;;;;;;;4986636;28;20030;-62
2024/01/06 14:19:27;;;;;;;9.85;8.95;;;;;;;;;;4991879;28;20557;-62
2024/01/06 14:21:53;;;;;;;9.60;8.80;;;;;;;;;;4989055;28;20046;-62
2024/01/06 14:24:23;;;;;;;9.93;9.10;;;;;;;;;;4988768;28;20125;-61
2024/01/06 14:26:55;;;;;;;10.45;9.57;;;;;;;;;;4988429;28;20110;-61
2024/01/06 14:29:21;;;;;;;10.52;9.52;;;;;;;;;;4989729;28;20036;-60
2024/01/06 14:31:48;;;;;;;11.48;10.48;;;;;;;;;;4994048;28;20034;-60
2024/01/06 14:34:14;;;;;;;11.27;10.23;;;;;;;;;;4989238;28;20038;-59
2024/01/06 14:36:47;;;;;;;11.82;10.80;;;;;;;;;;4993064;28;20104;-61